Cadillac, Michigan
Current Conditions -  °F | °C
As of 12:15 AM on Sunday 21 Dec 2014 (Local Time) from KCAD Reporting Station
Overcast Overcast  
Wind Chill: 25°   Ceiling: 1300
Heat Index: 25°   Visibility: 10mi
Dew Point: 22°   Wind: 0mph
Humidity: 88%   Direction: NA
Pressure: 30.2"   Gusts: NA
Location:  44.26°N, 85.4°W
Report Text: KCAD 210515Z AUTO 00000KT 10SM OVC013 M03/M05 A3020 RMK AO2 T10371054
Loading
Personal Weather Stations






























Interactive Weather Map New forecast layout! Learn more

10-Day Weather Forecast

Advertisements
Track Severe Weather on mobile